Gore Bay Manitoulin Airport
CYZE : now visible

Airfield :











YOU CAN JOIN US ON...

 
LOGIN :

Register | Disclaimer

   EN    FR    IT 

 









Legend :    VFR   Marginal VFR   IFR   Intensive IFR   Very Intensive IFR
Visi :
Ceiling :
>= 8 km
>= 3000ft
5 to 8 km
1000 to 3000 ft
1500m to 5 km
500 to 1000 ft
800 to 1500m
200 to 500 ft
< 800m
< 200 ft
Symbols :   Thunderstorms  Fog  Heavy snow  Heavy precipitations  Wind > 20 kt






- Airport Elevation : 635 ft
- IATA code : YZE


CYZE - Gore Bay Manitoulin

CURRENT METAR :
  • 181100Z AUTO 07008KT 9SM SCT019 OVC065 M08/M10 A3021 RMK PRESFR SLP247

EXPIRED METARs :
  • 181000Z AUTO 08009KT 9SM OVC065 M09/M11 A3027 RMK PRESFR SLP267
  • 180900Z AUTO 08010KT 9SM SCT017 OVC085 M10/M12 A3031 RMK PRESFR SLP282
  • 180845Z AUTO 07011KT 9SM SCT017 BKN065 OVC086 M10/M12 A3033 RMK PRESFR SLP288
  • 180838Z AUTO 07011KT 9SM BKN017 OVC070 M10/M12 A3034 RMK PRESFR SLP292

TAF TAF CYZE
Valid from the 18 at 11:00 until the 18 at 23:00 UTC


181038Z 1811/1823 09012KT P6SM SCT012 OVC050
TEMPO 1811/1812 P6SM -SN BKN012 OVC050
FM181200 09012KT P6SM -SN SCT012 OVC030
TEMPO 1812/1814 11/2SM -SN OVC012
FM181400 09015G25KT 1/2SM SN OVC006
TEMPO 1814/1823 1SM -SN OVC010 RMK FCST BASED ON AUTO OBS. NXT FCST BY 181400Z



MET'MAP, your aeronautical weather chart ! - Copyright ORBIFLY December 2007 - Disclaimer

ORBIFLY MET'MAP TEAM :

Programming & Development : Alexandra Zaïnal
Concept & original design : Baudouin d'Aumeries
Assistance for programming : Marc-Olivier Méhu
Technical & hardware support : Manuel Goepfert

Contact : metmap@orbifly.com




SOURCES & CREDITS :

   NOAA       Earth
Advisory